Melcher, Iowa
Current Conditions -  °F | °C
As of 9:35 AM on Saturday 25 Oct 2014 (Local Time) from KOXV Reporting Station
Clear Clear  
Wind Chill: 55°   Ceiling: Unl
Heat Index: 55°   Visibility: 10mi
Dew Point: 48°   Wind: 7mph
Humidity: 77%   Direction: 340°NNW
Pressure: 30.07"   Gusts: NA
Location:  41.22°N, 93.24°W
Report Text: KOXV 251435Z AUTO 34006KT 10SM CLR 13/09 A3007 RMK AO2
Loading
Personal Weather Stations






























Interactive Weather Map
Tropical Storm Tracking
New forecast layout! Learn more

10-Day Weather Forecast

Advertisements
Track Severe Weather on mobile